メインページ
METAR-TAF:

METAR-TAF

空港 :

ザグレブ国際空港

ザグレブ, クロアチア

緯度: 45-44N, 経度: 016-04E, 海抜: 106m

現時点の気象観測

当レポートは25分前の22:30(UTC)に作成
西/南西の風 7kt
気温 18°C
湿度 88%
気圧 1012 hPa
視程10km以上
1,500メートル以下は雲なし、積乱雲なし

METAR: LDZA 172230Z 25007KT CAVOK 18/16 Q1012 NOSIG

時間: 00:55 (22:55 UTC)

予報

当レポートは5時間30分前の17:25(UTC)に作成
予報は17日の 18時(UTC)から 18日の 18時(UTC)まで有効
西/南西の風 5kt
視程10km以上
1,500メートル以下は雲なし、積乱雲なし
18日の 06時(UTC)から 18日の 08時(UTC)まで徐々に
西の風 9kt

TAF: LDZA 171725Z 1718/1818 25005KT CAVOK TX29/1812Z TN16/1803Z BECMG 1806/1808 28009KT

4,000以上の空港の気象観測と天気予報(METAR報とTAF報)

利用可能な観測所は地図上に黄色い丸と赤い丸で示す。

丸の上にカーソルを重ねると観測所名を参照できる。

次にクリックすると気象観測と天気予報を参照できる。

マップの切り替え:黒色「×」印の緑ボタンをクリックして拡大、「-」印の緑ボタンをクリックして縮小、緑色の三角印をクリックして隣りの地図に切り替え


METAR-TAF: